Christos Xiii — SVA2355 — position and weather

sailwx.info

Track history (hours):
 
Tides and Currents Weather Stations Pressure Air Temp Water Temp Dewpoint Dewpoint Depression Visibility Wind Speed Wind Dir Waves Ship Positions

Christos Xiii

Last reported at 2018-Feb-24 14:01 UTC. Time now 2018-Feb-24 14:18 UTC.
Position N 38°02' E 023°30'.

Length 27 m; draft 3.7 m.

Type: Tug. MMSI: 240919000.

Date/timePositionNaut miles runAvg speedWind from/ knotsBaromVisibWave heightAir tempDewpointWater temp
2018-Feb-24 14:01N 38°02' E 023°30'0 0.4
2018-Feb-24 13:30N 38°02' E 023°30'0 0.1
2018-Feb-24 13:00N 38°02' E 023°31'0 0.0
2018-Feb-24 12:31N 38°02' E 023°31'0 0.0
2018-Feb-24 12:00N 38°02' E 023°31'0 0.0
2018-Feb-24 11:30N 38°02' E 023°31'0 0.0
2018-Feb-24 11:00N 38°02' E 023°31'0 0.0
2018-Feb-24 10:30N 38°02' E 023°31'0 0.0
2018-Feb-24 10:00N 38°02' E 023°31'0 0.0
2018-Feb-24 09:30N 38°02' E 023°31'0 0.0
2018-Feb-24 09:00N 38°02' E 023°31'0 0.0
2018-Feb-24 08:31N 38°02' E 023°31'0 0.4
2018-Feb-24 08:00N 38°02' E 023°31'0 0.3
2018-Feb-24 07:31N 38°02' E 023°31'0 0.3
2018-Feb-24 07:01N 38°02' E 023°31'0 0.0
2018-Feb-24 06:30N 38°02' E 023°31'0 0.0
2018-Feb-24 06:00N 38°02' E 023°31'0 0.0
2018-Feb-24 05:30N 38°02' E 023°31'0 0.0
2018-Feb-24 05:00N 38°02' E 023°31'0 0.0
2018-Feb-24 04:30N 38°02' E 023°31'0 0.0
2018-Feb-24 04:00N 38°02' E 023°31'0 0.0
2018-Feb-24 03:28N 38°02' E 023°31'0 0.0
2018-Feb-24 03:00N 38°02' E 023°31'0 0.0
2018-Feb-24 02:30N 38°02' E 023°31'0 0.0
2018-Feb-24 02:00N 38°02' E 023°31'0 0.0
2018-Feb-24 01:31N 38°02' E 023°31'0 0.0
2018-Feb-24 01:00N 38°02' E 023°31'0 0.0
2018-Feb-24 00:30N 38°02' E 023°31'0 0.0
2018-Feb-24 00:00N 38°02' E 023°31'0 0.0
2018-Feb-23 23:30N 38°02' E 023°31'0 0.0
2018-Feb-23 23:01N 38°02' E 023°31'0 0.0
2018-Feb-23 22:31N 38°02' E 023°31'0 0.0
2018-Feb-23 22:00N 38°02' E 023°31'0 0.0
2018-Feb-23 21:30N 38°02' E 023°31'0 0.0
2018-Feb-23 21:00N 38°02' E 023°31'0 0.0
2018-Feb-23 20:30N 38°02' E 023°31'0 0.1
2018-Feb-23 20:00N 38°02' E 023°30'0 0.1
2018-Feb-23 19:30N 38°02' E 023°31'0 0.4
2018-Feb-23 19:00N 38°02' E 023°30'0 0.4
2018-Feb-23 18:30N 38°02' E 023°31'0 0.0
2018-Feb-23 18:01N 38°02' E 023°31'0 0.0
2018-Feb-23 17:30N 38°02' E 023°31'0 0.0
2018-Feb-23 17:00N 38°02' E 023°31'0 0.0
2018-Feb-23 16:30N 38°02' E 023°31'0 0.0
2018-Feb-23 16:00N 38°02' E 023°31'0 0.1
2018-Feb-23 15:30N 38°02' E 023°31'1 1.1
2018-Feb-23 15:00N 38°02' E 023°31'3 7.0
2018-Feb-23 14:30N 38°02' E 023°36'0 0.3
2018-Feb-23 14:00N 38°02' E 023°36'0 0.0
2018-Feb-23 13:30N 38°02' E 023°36'0 0.0
2018-Feb-23 13:00N 38°02' E 023°36'0 0.0
2018-Feb-23 12:31N 38°02' E 023°36'0 0.0
2018-Feb-23 12:00N 38°02' E 023°36'0 0.0
2018-Feb-23 11:30N 38°02' E 023°36'0 0.0
2018-Feb-23 11:00N 38°02' E 023°36'0 0.1
2018-Feb-23 10:30N 38°02' E 023°36'0 0.0
2018-Feb-23 10:00N 38°02' E 023°36'4 8.9
2018-Feb-23 09:31N 38°01' E 023°30'5 9.3
2018-Feb-23 09:01N 37°59' E 023°25'3 6.4
2018-Feb-23 08:31N 37°56' E 023°26'1 2.4
2018-Feb-23 08:01N 37°57' E 023°25'4 7.2
2018-Feb-23 07:31N 38°00' E 023°27'510.0
2018-Feb-23 07:00N 38°01' E 023°33'2 3.6
2018-Feb-23 06:31N 38°01' E 023°35'0 0.0
2018-Feb-23 06:00N 38°01' E 023°35'0 0.0
2018-Feb-23 05:30N 38°01' E 023°36'0 0.0
2018-Feb-23 05:00N 38°01' E 023°36'0 0.0
2018-Feb-23 04:31N 38°01' E 023°36'0 0.0
2018-Feb-23 04:01N 38°01' E 023°35'0 0.0
2018-Feb-23 03:30N 38°01' E 023°35'0 0.0
2018-Feb-23 03:00N 38°01' E 023°35'0 0.0
2018-Feb-23 02:31N 38°01' E 023°35'0 0.0
2018-Feb-23 02:00N 38°01' E 023°35'0 0.0
2018-Feb-23 01:30N 38°01' E 023°36'0 0.0
2018-Feb-23 01:01N 38°01' E 023°36'0 0.0
2018-Feb-23 00:31N 38°01' E 023°35'0 0.0
2018-Feb-23 00:00N 38°01' E 023°35'0 0.0
2018-Feb-22 23:31N 38°01' E 023°36'0 0.0
2018-Feb-22 23:01N 38°01' E 023°36'0 0.0
2018-Feb-22 22:30N 38°01' E 023°36'0 0.0
2018-Feb-22 22:00N 38°01' E 023°36'0 0.0
2018-Feb-22 21:31N 38°01' E 023°35'0 0.0
2018-Feb-22 21:00N 38°01' E 023°36'0 0.0
2018-Feb-22 20:31N 38°01' E 023°35'0 0.0
2018-Feb-22 20:00N 38°01' E 023°35'0 0.0
2018-Feb-22 19:30N 38°01' E 023°35'0 0.0
2018-Feb-22 19:00N 38°01' E 023°36'0 0.0
2018-Feb-22 18:30N 38°01' E 023°36'0 0.0
2018-Feb-22 18:01N 38°01' E 023°36'0 0.0
2018-Feb-22 17:30N 38°01' E 023°36'0 0.0
2018-Feb-22 17:00N 38°01' E 023°36'0 0.0
2018-Feb-22 16:31N 38°01' E 023°36'0 0.0
2018-Feb-22 16:01N 38°01' E 023°35'0 0.0
2018-Feb-22 15:31N 38°01' E 023°36'0 0.0
2018-Feb-22 15:00N 38°01' E 023°36'0 0.0
2018-Feb-22 14:31N 38°01' E 023°35'0 0.0
2018-Feb-22 14:00N 38°01' E 023°35'0 0.0
2018-Feb-22 13:31N 38°01' E 023°35'0 0.0
2018-Feb-22 13:00N 38°01' E 023°35'0 0.0
2018-Feb-22 12:30N 38°01' E 023°36'0 0.0
2018-Feb-22 12:00N 38°01' E 023°36'0 0.0
2018-Feb-22 11:31N 38°01' E 023°35'0 0.0
2018-Feb-22 11:00N 38°01' E 023°35'0 0.2
2018-Feb-22 10:31N 38°01' E 023°36'0 0.2
2018-Feb-22 10:00N 38°02' E 023°36'1 1.7
2018-Feb-22 09:31N 38°01' E 023°35'0 0.8
2018-Feb-22 09:00N 38°02' E 023°35'0 0.5
2018-Feb-22 08:31N 38°01' E 023°35'0 0.0
2018-Feb-22 08:01N 38°01' E 023°35'0 0.0
2018-Feb-22 07:30N 38°01' E 023°35'4 8.0
2018-Feb-22 07:01N 38°02' E 023°30'0 0.2
2018-Feb-22 06:30N 38°02' E 023°30'0 0.4
2018-Feb-22 06:01N 38°02' E 023°31'0 0.0
2018-Feb-22 05:30N 38°02' E 023°31'0 0.0
2018-Feb-22 05:00N 38°02' E 023°31'0 0.0
2018-Feb-22 04:30N 38°02' E 023°31'0 0.0
2018-Feb-22 04:00N 38°02' E 023°31'0 0.0
2018-Feb-22 03:30N 38°02' E 023°31'0 0.0
2018-Feb-22 03:00N 38°02' E 023°31'0 0.0
2018-Feb-22 02:30N 38°02' E 023°31'0 0.0
2018-Feb-22 02:00N 38°02' E 023°31'0 0.0
2018-Feb-22 01:30N 38°02' E 023°31'0 0.0
2018-Feb-22 01:00N 38°02' E 023°31'0 0.0
2018-Feb-22 00:31N 38°02' E 023°31'0 0.0
2018-Feb-22 00:00N 38°02' E 023°31'0 0.0
2018-Feb-21 23:30N 38°02' E 023°31'0 0.0
2018-Feb-21 23:00N 38°02' E 023°31'0 0.0
2018-Feb-21 22:30N 38°02' E 023°31'0 0.0
2018-Feb-21 22:01N 38°02' E 023°31'0 0.0
2018-Feb-21 21:31N 38°02' E 023°31'0 0.0
2018-Feb-21 21:00N 38°02' E 023°31'0 0.0
2018-Feb-21 20:31N 38°02' E 023°31'0 0.0
2018-Feb-21 20:01N 38°02' E 023°31'0 0.0
2018-Feb-21 19:30N 38°02' E 023°31'0 0.0
2018-Feb-21 19:00N 38°02' E 023°31'0 0.0
2018-Feb-21 18:30N 38°02' E 023°31'0 0.0
2018-Feb-21 18:00N 38°02' E 023°31'0 0.0
2018-Feb-21 17:30N 38°02' E 023°31'0 0.0
2018-Feb-21 17:00N 38°02' E 023°31'0 0.0
2018-Feb-21 16:31N 38°02' E 023°31'0 0.0
2018-Feb-21 16:00N 38°02' E 023°31'0 0.0
2018-Feb-21 15:31N 38°02' E 023°31'0 0.0
2018-Feb-21 15:01N 38°02' E 023°31'0 0.0
2018-Feb-21 14:30N 38°02' E 023°31'0 0.0
2018-Feb-21 14:01N 38°02' E 023°31'0 0.0
2018-Feb-21 13:30N 38°02' E 023°31'0 0.0
2018-Feb-21 13:00N 38°02' E 023°31'0 0.0
2018-Feb-21 12:31N 38°02' E 023°31'0 0.0
2018-Feb-21 12:00N 38°02' E 023°31'0 0.0
2018-Feb-21 11:30N 38°02' E 023°31'0 0.0
2018-Feb-21 11:00N 38°02' E 023°31'0 0.0
2018-Feb-21 10:31N 38°02' E 023°31'0 0.0
2018-Feb-21 10:01N 38°02' E 023°31'0 0.0
2018-Feb-21 09:31N 38°02' E 023°31'0 0.0
2018-Feb-21 09:00N 38°02' E 023°31'0 0.0
2018-Feb-21 08:30N 38°02' E 023°31'0 0.0
2018-Feb-21 08:01N 38°02' E 023°31'0 0.0
2018-Feb-21 07:30N 38°02' E 023°31'0 0.0
2018-Feb-21 07:00N 38°02' E 023°31'0 0.0
2018-Feb-21 06:30N 38°02' E 023°31'0 0.0
2018-Feb-21 06:00N 38°02' E 023°31'0 0.0
2018-Feb-21 05:30N 38°02' E 023°31'0 0.0
2018-Feb-21 05:00N 38°02' E 023°31'0 0.0
2018-Feb-21 04:31N 38°02' E 023°31'0 0.0
2018-Feb-21 04:01N 38°02' E 023°31'0 0.0
2018-Feb-21 03:30N 38°02' E 023°31'0 0.0
2018-Feb-21 03:00N 38°02' E 023°31'0 0.0
2018-Feb-21 02:30N 38°02' E 023°31'0 0.0
2018-Feb-21 02:01N 38°02' E 023°31'0 0.0
2018-Feb-21 01:31N 38°02' E 023°31'0 0.0
2018-Feb-21 01:00N 38°02' E 023°31'0 0.0
2018-Feb-21 00:31N 38°02' E 023°31'0 0.0
2018-Feb-21 00:00N 38°02' E 023°31'0 0.0
2018-Feb-20 23:30N 38°02' E 023°31'0 0.0
2018-Feb-20 23:00N 38°02' E 023°31'0 0.0
2018-Feb-20 22:31N 38°02' E 023°31'0 0.0
2018-Feb-20 22:00N 38°02' E 023°31'0 0.4
2018-Feb-20 21:31N 38°02' E 023°30'0 0.4
2018-Feb-20 21:00N 38°02' E 023°30'0 0.4
2018-Feb-20 20:30N 38°02' E 023°30'0 0.4
2018-Feb-20 20:01N 38°02' E 023°31'0 0.0
2018-Feb-20 19:30N 38°02' E 023°31'0 0.0
2018-Feb-20 19:01N 38°02' E 023°31'0 0.0
2018-Feb-20 18:30N 38°02' E 023°31'0 0.0
2018-Feb-20 18:01N 38°02' E 023°31'0 0.4
2018-Feb-20 17:30N 38°02' E 023°31'0 0.4
2018-Feb-20 17:01N 38°02' E 023°31'0 0.0
2018-Feb-20 16:31N 38°02' E 023°31'0 0.0
2018-Feb-20 16:01N 38°02' E 023°31'0 0.0
2018-Feb-20 15:31N 38°02' E 023°31'0 0.0
2018-Feb-20 15:00N 38°02' E 023°31'0 0.0
2018-Feb-20 14:30N 38°02' E 023°31'0 0.0
2018-Feb-20 14:01N 38°02' E 023°31'0 0.0
2018-Feb-20 13:30N 38°02' E 023°31'0 0.0
2018-Feb-20 13:00N 38°02' E 023°31'0 0.0
2018-Feb-20 12:30N 38°02' E 023°31'0 0.7
2018-Feb-20 12:01N 38°02' E 023°31'0 0.7
2018-Feb-20 11:30N 38°02' E 023°30'2 4.7
2018-Feb-20 11:00N 38°02' E 023°33'2 3.4
2018-Feb-20 10:31N 38°02' E 023°36'1 1.4
2018-Feb-20 10:00N 38°01' E 023°35'1 1.1
2018-Feb-20 09:31N 38°01' E 023°35'0 0.5
2018-Feb-20 09:00N 38°01' E 023°36'0 0.1
2018-Feb-20 08:30N 38°01' E 023°36'0 0.4
2018-Feb-20 08:00N 38°01' E 023°36'0 0.2
2018-Feb-20 07:31N 38°01' E 023°35'0 0.4
2018-Feb-20 07:00N 38°01' E 023°35'0 0.1
2018-Feb-20 06:30N 38°01' E 023°35'0 0.0
2018-Feb-20 06:01N 38°01' E 023°35'0 0.0
2018-Feb-20 05:31N 38°01' E 023°35'0 0.0
2018-Feb-20 05:00N 38°01' E 023°35'0 0.0
2018-Feb-20 04:30N 38°01' E 023°35'0 0.0
2018-Feb-20 04:00N 38°01' E 023°35'0 0.0
2018-Feb-20 03:30N 38°01' E 023°35'0 0.0
2018-Feb-20 03:01N 38°01' E 023°35'0 0.0
2018-Feb-20 02:30N 38°01' E 023°35'0 0.0
2018-Feb-20 02:01N 38°01' E 023°35'0 0.0
2018-Feb-20 01:30N 38°01' E 023°35'0 0.0
2018-Feb-20 01:01N 38°01' E 023°35'0 0.0
2018-Feb-20 00:30N 38°01' E 023°35'0 0.0
2018-Feb-20 00:01N 38°01' E 023°35'0 0.0
2018-Feb-19 23:31N 38°01' E 023°35'0 0.0
2018-Feb-19 23:00N 38°01' E 023°35'0 0.0
2018-Feb-19 22:30N 38°01' E 023°35'0 0.0
2018-Feb-19 22:01N 38°01' E 023°35'0 0.0
2018-Feb-19 21:30N 38°01' E 023°35'0 0.0
2018-Feb-19 21:00N 38°01' E 023°35'0 0.0
2018-Feb-19 20:30N 38°01' E 023°35'0 0.0
2018-Feb-19 20:00N 38°01' E 023°35'0 0.0
2018-Feb-19 19:30N 38°01' E 023°35'0 0.0
2018-Feb-19 19:00N 38°01' E 023°35'0 0.0
2018-Feb-19 18:30N 38°01' E 023°35'0 0.0
2018-Feb-19 18:00N 38°01' E 023°35'0 0.0
2018-Feb-19 17:31N 38°01' E 023°35'0 0.0
2018-Feb-19 17:00N 38°01' E 023°35'0 0.0
2018-Feb-19 16:30N 38°01' E 023°35'0 0.0
2018-Feb-19 16:01N 38°01' E 023°35'0 0.0
2018-Feb-19 15:30N 38°01' E 023°35'0 0.0
2018-Feb-19 15:00N 38°01' E 023°35'0 0.0
2018-Feb-19 14:30N 38°01' E 023°35'0 0.0
2018-Feb-19 14:00N 38°01' E 023°35'0 0.0
2018-Feb-19 13:30N 38°01' E 023°35'0 0.0
2018-Feb-19 13:00N 38°01' E 023°35'0 0.0
2018-Feb-19 12:30N 38°01' E 023°36'0 0.0
2018-Feb-19 12:00N 38°01' E 023°35'0 0.0
2018-Feb-19 11:31N 38°01' E 023°35'0 0.4
2018-Feb-19 11:01N 38°02' E 023°36'1 1.2
2018-Feb-19 10:30N 38°01' E 023°35'0 0.2
2018-Feb-19 10:01N 38°01' E 023°35'0 0.1
2018-Feb-19 09:29N 38°01' E 023°35'1 1.9
2018-Feb-19 09:00N 38°02' E 023°34'3 5.2
2018-Feb-19 08:30N 38°02' E 023°31'0 0.6
2018-Feb-19 08:00N 38°02' E 023°31'0 0.0
2018-Feb-19 07:30N 38°02' E 023°31'0 0.0
2018-Feb-19 07:00N 38°02' E 023°31'0 0.0
2018-Feb-19 06:30N 38°02' E 023°31'0 0.0
2018-Feb-19 06:00N 38°02' E 023°31'0 0.0
2018-Feb-19 05:31N 38°02' E 023°31'0 0.0
2018-Feb-19 05:00N 38°02' E 023°31'0 0.0
2018-Feb-19 04:31N 38°02' E 023°31'0 0.0
2018-Feb-19 04:00N 38°02' E 023°31'0 0.0
2018-Feb-19 03:31N 38°02' E 023°31'0 0.0
2018-Feb-19 03:00N 38°02' E 023°31'0 0.0
2018-Feb-19 02:30N 38°02' E 023°31'0 0.0
2018-Feb-19 02:01N 38°02' E 023°31'0 0.0
2018-Feb-19 01:30N 38°02' E 023°31'0 0.0
2018-Feb-19 01:00N 38°02' E 023°31'0 0.0
2018-Feb-19 00:30N 38°02' E 023°31'0 0.0
2018-Feb-19 00:00N 38°02' E 023°31'0 0.0
2018-Feb-18 23:30N 38°02' E 023°31'0 0.0
2018-Feb-18 23:00N 38°02' E 023°31'0 0.0
2018-Feb-18 22:31N 38°02' E 023°31'0 0.0
2018-Feb-18 22:01N 38°02' E 023°31'0 0.0
2018-Feb-18 21:30N 38°02' E 023°31'0 0.0
2018-Feb-18 21:01N 38°02' E 023°31'0 0.0
2018-Feb-18 20:30N 38°02' E 023°31'0 0.0
2018-Feb-18 20:00N 38°02' E 023°31'0 0.0
2018-Feb-18 19:31N 38°02' E 023°31'0 0.0
2018-Feb-18 19:00N 38°02' E 023°31'0 0.0
2018-Feb-18 18:30N 38°02' E 023°31'0 0.0
2018-Feb-18 18:00N 38°02' E 023°31'0 0.3
2018-Feb-18 17:31N 38°02' E 023°31'0 0.2
2018-Feb-18 17:00N 38°02' E 023°31'0 0.0
2018-Feb-18 16:31N 38°02' E 023°31'0 0.0
2018-Feb-18 16:01N 38°02' E 023°31'0 0.0
2018-Feb-18 15:30N 38°02' E 023°31'0 0.0
2018-Feb-18 15:00N 38°02' E 023°31'0 0.0
2018-Feb-18 14:30N 38°02' E 023°31'0 0.0
2018-Feb-18 14:01N 38°02' E 023°31'0 0.5
2018-Feb-18 13:30N 38°02' E 023°31'0 0.1
2018-Feb-18 13:00N 38°02' E 023°31'0 0.6
2018-Feb-18 12:31N 38°02' E 023°31'0 0.0
2018-Feb-18 12:00N 38°02' E 023°31'0 0.0
2018-Feb-18 11:30N 38°02' E 023°31'0 0.0
2018-Feb-18 11:00N 38°02' E 023°31'0 0.0
2018-Feb-18 10:31N 38°02' E 023°31'0 0.6
2018-Feb-18 10:00N 38°02' E 023°31'0 0.3
2018-Feb-18 09:31N 38°02' E 023°31'0 0.3
2018-Feb-18 09:01N 38°02' E 023°31'0 0.0
2018-Feb-18 08:31N 38°02' E 023°31'0 0.2
2018-Feb-18 08:01N 38°02' E 023°30'0 0.2
2018-Feb-18 07:30N 38°02' E 023°31'0 0.0
2018-Feb-18 07:01N 38°02' E 023°31'0 0.0
2018-Feb-18 06:31N 38°02' E 023°31'0 0.0
2018-Feb-18 06:00N 38°02' E 023°31'0 0.0
2018-Feb-18 05:30N 38°02' E 023°31'0 0.0
2018-Feb-18 05:00N 38°02' E 023°31'0 0.0
2018-Feb-18 04:31N 38°02' E 023°31'0 0.0
2018-Feb-18 04:00N 38°02' E 023°31'0 0.0
2018-Feb-18 03:31N 38°02' E 023°31'0 0.0
2018-Feb-18 03:00N 38°02' E 023°31'0 0.0
2018-Feb-18 02:30N 38°02' E 023°31'0 0.0
2018-Feb-18 02:00N 38°02' E 023°31'0 0.0
2018-Feb-18 01:30N 38°02' E 023°31'0 0.0
2018-Feb-18 01:01N 38°02' E 023°31'0 0.0
2018-Feb-18 00:31N 38°02' E 023°31'0 0.0
2018-Feb-18 00:01N 38°02' E 023°31'0 0.0
2018-Feb-17 23:30N 38°02' E 023°31'0 0.0
2018-Feb-17 23:00N 38°02' E 023°31'0 0.0
2018-Feb-17 22:30N 38°02' E 023°31'0 0.0
2018-Feb-17 22:01N 38°02' E 023°31'0 0.0
2018-Feb-17 21:31N 38°02' E 023°31'0 0.0
2018-Feb-17 21:00N 38°02' E 023°31'0 0.0
2018-Feb-17 20:30N 38°02' E 023°31'0 0.0
2018-Feb-17 20:00N 38°02' E 023°31'0 0.0
2018-Feb-17 19:31N 38°02' E 023°31'0 0.0
2018-Feb-17 19:01N 38°02' E 023°31'0 0.0
2018-Feb-17 18:31N 38°02' E 023°31'0 0.0
2018-Feb-17 18:00N 38°02' E 023°31'0 0.0
2018-Feb-17 17:30N 38°02' E 023°31'0 0.0
2018-Feb-17 17:00N 38°02' E 023°31'0 0.0
2018-Feb-17 16:30N 38°02' E 023°31'0 0.0
2018-Feb-17 16:00N 38°02' E 023°31'0 0.0
2018-Feb-17 15:30N 38°02' E 023°31'0 0.1
2018-Feb-17 15:00N 38°02' E 023°30'0 0.1
2018-Feb-17 14:31N 38°02' E 023°31'0 0.0
2018-Feb-17 14:00N 38°02' E 023°31'0 0.0
2018-Feb-17 13:30N 38°02' E 023°31'0 0.0
2018-Feb-17 13:00N 38°02' E 023°31'0 0.0
2018-Feb-17 12:30N 38°02' E 023°31'1 1.1
2018-Feb-17 12:00N 38°02' E 023°31'1 2.3
2018-Feb-17 11:30N 38°02' E 023°33'2 3.3
2018-Feb-17 11:01N 38°02' E 023°31'0 0.0
2018-Feb-17 10:31N 38°02' E 023°31'0 0.0
2018-Feb-17 10:00N 38°02' E 023°31'0 0.0
2018-Feb-17 09:31N 38°02' E 023°31'0 0.0
2018-Feb-17 09:00N 38°02' E 023°31'0 0.0
2018-Feb-17 08:31N 38°02' E 023°31'0 0.0
2018-Feb-17 08:01N 38°02' E 023°31'1 2.4
2018-Feb-17 07:30N 38°02' E 023°32'1 1.2
2018-Feb-17 07:01N 38°02' E 023°33'2 3.2
2018-Feb-17 06:31N 38°02' E 023°31'0 0.7
2018-Feb-17 06:01N 38°02' E 023°31'0 0.0
2018-Feb-17 05:30N 38°02' E 023°31'0 0.0
2018-Feb-17 05:01N 38°02' E 023°31'0 0.0
2018-Feb-17 04:31N 38°02' E 023°31'0 0.0
2018-Feb-17 04:00N 38°02' E 023°31'0 0.0
2018-Feb-17 03:31N 38°02' E 023°31'0 0.0
2018-Feb-17 03:00N 38°02' E 023°31'0 0.0
2018-Feb-17 02:31N 38°02' E 023°31'0 0.0
2018-Feb-17 02:00N 38°02' E 023°31'0 0.4
2018-Feb-17 01:30N 38°02' E 023°31'0 0.4
2018-Feb-17 00:59N 38°02' E 023°31'0 0.0
2018-Feb-17 00:30N 38°02' E 023°31'0 0.0
2018-Feb-17 00:00N 38°02' E 023°31'0 0.0
2018-Feb-16 23:31N 38°02' E 023°31'0 0.0
2018-Feb-16 23:00N 38°02' E 023°31'0 0.0
2018-Feb-16 22:30N 38°02' E 023°31'0 0.0
2018-Feb-16 22:00N 38°02' E 023°31'0 0.0
2018-Feb-16 21:31N 38°02' E 023°31'0 0.0
2018-Feb-16 21:01N 38°02' E 023°31'0 0.0
2018-Feb-16 20:31N 38°02' E 023°31'0 0.0
2018-Feb-16 20:00N 38°02' E 023°31'0 0.0
2018-Feb-16 19:30N 38°02' E 023°31'0 0.0
2018-Feb-16 19:01N 38°02' E 023°31'0 0.0
2018-Feb-16 18:30N 38°02' E 023°31'0 0.0
2018-Feb-16 18:01N 38°02' E 023°31'0 0.0
2018-Feb-16 17:30N 38°02' E 023°31'0 0.0
2018-Feb-16 17:01N 38°02' E 023°31'0 0.0
2018-Feb-16 16:30N 38°02' E 023°31'0 0.0
2018-Feb-16 16:01N 38°02' E 023°31'0 0.0
2018-Feb-16 15:30N 38°02' E 023°31'0 0.0
2018-Feb-16 15:00N 38°02' E 023°31'0 0.0
2018-Feb-16 14:30N 38°02' E 023°31'0 0.0
2018-Feb-16 14:00N 38°02' E 023°31'0 0.0
2018-Feb-16 13:30N 38°02' E 023°31'0 0.0
2018-Feb-16 13:00N 38°02' E 023°31'0 0.0
2018-Feb-16 12:30N 38°02' E 023°31'0 0.5
2018-Feb-16 12:01N 38°02' E 023°31'1 1.7
2018-Feb-16 11:31N 38°01' E 023°31'1 1.5
2018-Feb-16 11:00N 38°02' E 023°31'0 0.6
2018-Feb-16 10:30N 38°02' E 023°31'0 0.0
2018-Feb-16 10:00N 38°02' E 023°31'0 0.0
2018-Feb-16 09:31N 38°02' E 023°31'0 0.0
2018-Feb-16 09:00N 38°02' E 023°31'2 3.4
2018-Feb-16 08:30N 38°02' E 023°33'2 4.9
2018-Feb-16 08:00N 38°02' E 023°36'4 7.4
2018-Feb-16 07:30N 38°02' E 023°31'1 1.0
2018-Feb-16 07:00N 38°02' E 023°31'0 0.2
2018-Feb-16 06:31N 38°02' E 023°31'0 0.2
2018-Feb-16 06:00N 38°02' E 023°31'0 0.0
2018-Feb-16 05:31N 38°02' E 023°31'0 0.0
2018-Feb-16 05:00N 38°02' E 023°31'0 0.0
2018-Feb-16 04:30N 38°02' E 023°31'0 0.0
2018-Feb-16 04:01N 38°02' E 023°31'0 0.0
2018-Feb-16 03:30N 38°02' E 023°31'0 0.0
2018-Feb-16 03:01N 38°02' E 023°31'0 0.0
2018-Feb-16 02:30N 38°02' E 023°31'0 0.0
2018-Feb-16 02:01N 38°02' E 023°31'0 0.0
2018-Feb-16 01:30N 38°02' E 023°31'0 0.0
2018-Feb-16 01:01N 38°02' E 023°31'0 0.0
2018-Feb-16 00:31N 38°02' E 023°31'0 0.0
2018-Feb-16 00:00N 38°02' E 023°31'0 0.0
2018-Feb-15 23:31N 38°02' E 023°31'0 0.0
2018-Feb-15 23:01N 38°02' E 023°31'0 0.0
2018-Feb-15 22:30N 38°02' E 023°31'0 0.0
2018-Feb-15 22:00N 38°02' E 023°31'0 0.0
2018-Feb-15 21:30N 38°02' E 023°31'0 0.0
2018-Feb-15 21:00N 38°02' E 023°31'0 0.0
2018-Feb-15 20:31N 38°02' E 023°31'0 0.0
2018-Feb-15 20:00N 38°02' E 023°31'0 0.0
2018-Feb-15 19:30N 38°02' E 023°31'0 0.0
2018-Feb-15 19:01N 38°02' E 023°31'0 0.0
2018-Feb-15 18:31N 38°02' E 023°31'0 0.0
2018-Feb-15 18:00N 38°02' E 023°31'0 0.0
2018-Feb-15 17:31N 38°02' E 023°31'0 0.0
2018-Feb-15 17:00N 38°02' E 023°31'0 0.0
2018-Feb-15 16:31N 38°02' E 023°31'0 0.0
2018-Feb-15 16:00N 38°02' E 023°31'0 0.0
2018-Feb-15 15:31N 38°02' E 023°31'0 0.0
2018-Feb-15 14:59N 38°02' E 023°31'0 0.0
2018-Feb-15 14:30N 38°02' E 023°31'0 0.0
2018-Feb-15 14:00N 38°02' E 023°31'0 0.0
2018-Feb-15 13:30N 38°02' E 023°31'0 0.0
2018-Feb-15 13:00N 38°02' E 023°31'0 0.0
2018-Feb-15 12:30N 38°02' E 023°31'0 0.0
2018-Feb-15 12:01N 38°02' E 023°31'0 0.0
2018-Feb-15 11:31N 38°02' E 023°31'0 0.0
2018-Feb-15 11:00N 38°02' E 023°31'0 0.0
2018-Feb-15 10:31N 38°02' E 023°31'0 0.0
2018-Feb-15 10:01N 38°02' E 023°31'0 0.0
2018-Feb-15 09:30N 38°02' E 023°31'0 0.0
2018-Feb-15 09:01N 38°02' E 023°31'0 0.0
2018-Feb-15 08:31N 38°02' E 023°31'0 0.0
2018-Feb-15 08:01N 38°02' E 023°31'0 0.0
2018-Feb-15 07:30N 38°02' E 023°31'0 0.0
2018-Feb-15 07:00N 38°02' E 023°31'0 0.0
2018-Feb-15 06:30N 38°02' E 023°31'0 0.0
2018-Feb-15 06:00N 38°02' E 023°31'0 0.0
2018-Feb-15 05:30N 38°02' E 023°31'0 0.0
2018-Feb-15 05:00N 38°02' E 023°31'0 0.0
2018-Feb-15 04:31N 38°02' E 023°31'0 0.0
2018-Feb-15 04:00N 38°02' E 023°31'0 0.0
2018-Feb-15 03:30N 38°02' E 023°31'0 0.0
2018-Feb-15 03:01N 38°02' E 023°31'0 0.0
2018-Feb-15 02:30N 38°02' E 023°31'0 0.4
2018-Feb-15 02:00N 38°02' E 023°31'0 0.5
2018-Feb-15 01:31N 38°02' E 023°31'0 0.0
2018-Feb-15 01:01N 38°02' E 023°31'0 0.0
2018-Feb-15 00:30N 38°02' E 023°31'0 0.0
2018-Feb-15 00:00N 38°02' E 023°31'0 0.0
2018-Feb-14 23:30N 38°02' E 023°31'0 0.0
2018-Feb-14 23:00N 38°02' E 023°31'0 0.0
2018-Feb-14 22:30N 38°02' E 023°31'0 0.0
2018-Feb-14 22:00N 38°02' E 023°31'0 0.0
2018-Feb-14 21:30N 38°02' E 023°31'0 0.0
2018-Feb-14 21:00N 38°02' E 023°31'0 0.0
2018-Feb-14 20:30N 38°02' E 023°31'0 0.0
2018-Feb-14 20:01N 38°02' E 023°31'0 0.0
2018-Feb-14 19:31N 38°02' E 023°31'0 0.0
2018-Feb-14 19:00N 38°02' E 023°31'0 0.0
2018-Feb-14 18:30N 38°02' E 023°31'0 0.0
2018-Feb-14 18:00N 38°02' E 023°31'0 0.0
2018-Feb-14 17:31N 38°02' E 023°31'0 0.0
2018-Feb-14 17:01N 38°02' E 023°31'0 0.0
2018-Feb-14 16:30N 38°02' E 023°31'0 0.0
2018-Feb-14 16:01N 38°02' E 023°31'0 0.0
2018-Feb-14 15:31N 38°02' E 023°31'0 0.0
2018-Feb-14 15:01N 38°02' E 023°31'0 0.0
2018-Feb-14 14:30N 38°02' E 023°31'0 0.0
2018-Feb-14 14:01N 38°02' E 023°31'  
Track history (hours):
 
Tides and Currents Weather Stations Pressure Air Temp Water Temp Dewpoint Dewpoint Depression Visibility Wind Speed Wind Dir Waves Ship Positions

Christos Xiii

Last reported at 2018-Feb-24 14:01 UTC. Time now 2018-Feb-24 14:18 UTC.
Position N 38°02' E 023°30'.

Length 27 m; draft 3.7 m.

Type: Tug. MMSI: 240919000.

Date/timePositionNaut miles runAvg speedWind from/ knotsBaromVisibWave heightAir tempDewpointWater temp
2018-Feb-24 14:01N 38°02' E 023°30'0 0.4
2018-Feb-24 13:30N 38°02' E 023°30'0 0.1
2018-Feb-24 13:00N 38°02' E 023°31'0 0.0
2018-Feb-24 12:31N 38°02' E 023°31'0 0.0
2018-Feb-24 12:00N 38°02' E 023°31'0 0.0
2018-Feb-24 11:30N 38°02' E 023°31'0 0.0
2018-Feb-24 11:00N 38°02' E 023°31'0 0.0
2018-Feb-24 10:30N 38°02' E 023°31'0 0.0
2018-Feb-24 10:00N 38°02' E 023°31'0 0.0
2018-Feb-24 09:30N 38°02' E 023°31'0 0.0
2018-Feb-24 09:00N 38°02' E 023°31'0 0.0
2018-Feb-24 08:31N 38°02' E 023°31'0 0.4
2018-Feb-24 08:00N 38°02' E 023°31'0 0.3
2018-Feb-24 07:31N 38°02' E 023°31'0 0.3
2018-Feb-24 07:01N 38°02' E 023°31'0 0.0
2018-Feb-24 06:30N 38°02' E 023°31'0 0.0
2018-Feb-24 06:00N 38°02' E 023°31'0 0.0
2018-Feb-24 05:30N 38°02' E 023°31'0 0.0
2018-Feb-24 05:00N 38°02' E 023°31'0 0.0
2018-Feb-24 04:30N 38°02' E 023°31'0 0.0
2018-Feb-24 04:00N 38°02' E 023°31'0 0.0
2018-Feb-24 03:28N 38°02' E 023°31'0 0.0
2018-Feb-24 03:00N 38°02' E 023°31'0 0.0
2018-Feb-24 02:30N 38°02' E 023°31'0 0.0
2018-Feb-24 02:00N 38°02' E 023°31'0 0.0
2018-Feb-24 01:31N 38°02' E 023°31'0 0.0
2018-Feb-24 01:00N 38°02' E 023°31'0 0.0
2018-Feb-24 00:30N 38°02' E 023°31'0 0.0
2018-Feb-24 00:00N 38°02' E 023°31'0 0.0
2018-Feb-23 23:30N 38°02' E 023°31'0 0.0
2018-Feb-23 23:01N 38°02' E 023°31'0 0.0
2018-Feb-23 22:31N 38°02' E 023°31'0 0.0
2018-Feb-23 22:00N 38°02' E 023°31'0 0.0
2018-Feb-23 21:30N 38°02' E 023°31'0 0.0
2018-Feb-23 21:00N 38°02' E 023°31'0 0.0
2018-Feb-23 20:30N 38°02' E 023°31'0 0.1
2018-Feb-23 20:00N 38°02' E 023°30'0 0.1
2018-Feb-23 19:30N 38°02' E 023°31'0 0.4
2018-Feb-23 19:00N 38°02' E 023°30'0 0.4
2018-Feb-23 18:30N 38°02' E 023°31'0 0.0
2018-Feb-23 18:01N 38°02' E 023°31'0 0.0
2018-Feb-23 17:30N 38°02' E 023°31'0 0.0
2018-Feb-23 17:00N 38°02' E 023°31'0 0.0
2018-Feb-23 16:30N 38°02' E 023°31'0 0.0
2018-Feb-23 16:00N 38°02' E 023°31'0 0.1
2018-Feb-23 15:30N 38°02' E 023°31'1 1.1
2018-Feb-23 15:00N 38°02' E 023°31'3 7.0
2018-Feb-23 14:30N 38°02' E 023°36'0 0.3
2018-Feb-23 14:00N 38°02' E 023°36'0 0.0
2018-Feb-23 13:30N 38°02' E 023°36'0 0.0
2018-Feb-23 13:00N 38°02' E 023°36'0 0.0
2018-Feb-23 12:31N 38°02' E 023°36'0 0.0
2018-Feb-23 12:00N 38°02' E 023°36'0 0.0
2018-Feb-23 11:30N 38°02' E 023°36'0 0.0
2018-Feb-23 11:00N 38°02' E 023°36'0 0.1
2018-Feb-23 10:30N 38°02' E 023°36'0 0.0
2018-Feb-23 10:00N 38°02' E 023°36'4 8.9
2018-Feb-23 09:31N 38°01' E 023°30'5 9.3
2018-Feb-23 09:01N 37°59' E 023°25'3 6.4
2018-Feb-23 08:31N 37°56' E 023°26'1 2.4
2018-Feb-23 08:01N 37°57' E 023°25'4 7.2
2018-Feb-23 07:31N 38°00' E 023°27'510.0
2018-Feb-23 07:00N 38°01' E 023°33'2 3.6
2018-Feb-23 06:31N 38°01' E 023°35'0 0.0
2018-Feb-23 06:00N 38°01' E 023°35'0 0.0
2018-Feb-23 05:30N 38°01' E 023°36'0 0.0
2018-Feb-23 05:00N 38°01' E 023°36'0 0.0
2018-Feb-23 04:31N 38°01' E 023°36'0 0.0
2018-Feb-23 04:01N 38°01' E 023°35'0 0.0
2018-Feb-23 03:30N 38°01' E 023°35'0 0.0
2018-Feb-23 03:00N 38°01' E 023°35'0 0.0
2018-Feb-23 02:31N 38°01' E 023°35'0 0.0
2018-Feb-23 02:00N 38°01' E 023°35'0 0.0
2018-Feb-23 01:30N 38°01' E 023°36'0 0.0
2018-Feb-23 01:01N 38°01' E 023°36'0 0.0
2018-Feb-23 00:31N 38°01' E 023°35'0 0.0
2018-Feb-23 00:00N 38°01' E 023°35'0 0.0
2018-Feb-22 23:31N 38°01' E 023°36'0 0.0
2018-Feb-22 23:01N 38°01' E 023°36'0 0.0
2018-Feb-22 22:30N 38°01' E 023°36'0 0.0
2018-Feb-22 22:00N 38°01' E 023°36'0 0.0
2018-Feb-22 21:31N 38°01' E 023°35'0 0.0
2018-Feb-22 21:00N 38°01' E 023°36'0 0.0
2018-Feb-22 20:31N 38°01' E 023°35'0 0.0
2018-Feb-22 20:00N 38°01' E 023°35'0 0.0
2018-Feb-22 19:30N 38°01' E 023°35'0 0.0
2018-Feb-22 19:00N 38°01' E 023°36'0 0.0
2018-Feb-22 18:30N 38°01' E 023°36'0 0.0
2018-Feb-22 18:01N 38°01' E 023°36'0 0.0
2018-Feb-22 17:30N 38°01' E 023°36'0 0.0
2018-Feb-22 17:00N 38°01' E 023°36'0 0.0
2018-Feb-22 16:31N 38°01' E 023°36'0 0.0
2018-Feb-22 16:01N 38°01' E 023°35'0 0.0
2018-Feb-22 15:31N 38°01' E 023°36'0 0.0
2018-Feb-22 15:00N 38°01' E 023°36'0 0.0
2018-Feb-22 14:31N 38°01' E 023°35'0 0.0
2018-Feb-22 14:00N 38°01' E 023°35'0 0.0
2018-Feb-22 13:31N 38°01' E 023°35'0 0.0
2018-Feb-22 13:00N 38°01' E 023°35'0 0.0
2018-Feb-22 12:30N 38°01' E 023°36'0 0.0
2018-Feb-22 12:00N 38°01' E 023°36'0 0.0
2018-Feb-22 11:31N 38°01' E 023°35'0 0.0
2018-Feb-22 11:00N 38°01' E 023°35'0 0.2
2018-Feb-22 10:31N 38°01' E 023°36'0 0.2
2018-Feb-22 10:00N 38°02' E 023°36'1 1.7
2018-Feb-22 09:31N 38°01' E 023°35'0 0.8
2018-Feb-22 09:00N 38°02' E 023°35'0 0.5
2018-Feb-22 08:31N 38°01' E 023°35'0 0.0
2018-Feb-22 08:01N 38°01' E 023°35'0 0.0
2018-Feb-22 07:30N 38°01' E 023°35'4 8.0
2018-Feb-22 07:01N 38°02' E 023°30'0 0.2
2018-Feb-22 06:30N 38°02' E 023°30'0 0.4
2018-Feb-22 06:01N 38°02' E 023°31'0 0.0
2018-Feb-22 05:30N 38°02' E 023°31'0 0.0
2018-Feb-22 05:00N 38°02' E 023°31'0 0.0
2018-Feb-22 04:30N 38°02' E 023°31'0 0.0
2018-Feb-22 04:00N 38°02' E 023°31'0 0.0
2018-Feb-22 03:30N 38°02' E 023°31'0 0.0
2018-Feb-22 03:00N 38°02' E 023°31'0 0.0
2018-Feb-22 02:30N 38°02' E 023°31'0 0.0
2018-Feb-22 02:00N 38°02' E 023°31'0 0.0
2018-Feb-22 01:30N 38°02' E 023°31'0 0.0
2018-Feb-22 01:00N 38°02' E 023°31'0 0.0
2018-Feb-22 00:31N 38°02' E 023°31'0 0.0
2018-Feb-22 00:00N 38°02' E 023°31'0 0.0
2018-Feb-21 23:30N 38°02' E 023°31'0 0.0
2018-Feb-21 23:00N 38°02' E 023°31'0 0.0
2018-Feb-21 22:30N 38°02' E 023°31'0 0.0
2018-Feb-21 22:01N 38°02' E 023°31'0 0.0
2018-Feb-21 21:31N 38°02' E 023°31'0 0.0
2018-Feb-21 21:00N 38°02' E 023°31'0 0.0
2018-Feb-21 20:31N 38°02' E 023°31'0 0.0
2018-Feb-21 20:01N 38°02' E 023°31'0 0.0
2018-Feb-21 19:30N 38°02' E 023°31'0 0.0
2018-Feb-21 19:00N 38°02' E 023°31'0 0.0
2018-Feb-21 18:30N 38°02' E 023°31'0 0.0
2018-Feb-21 18:00N 38°02' E 023°31'0 0.0
2018-Feb-21 17:30N 38°02' E 023°31'0 0.0
2018-Feb-21 17:00N 38°02' E 023°31'0 0.0
2018-Feb-21 16:31N 38°02' E 023°31'0 0.0
2018-Feb-21 16:00N 38°02' E 023°31'0 0.0
2018-Feb-21 15:31N 38°02' E 023°31'0 0.0
2018-Feb-21 15:01N 38°02' E 023°31'0 0.0
2018-Feb-21 14:30N 38°02' E 023°31'0 0.0
2018-Feb-21 14:01N 38°02' E 023°31'0 0.0
2018-Feb-21 13:30N 38°02' E 023°31'0 0.0
2018-Feb-21 13:00N 38°02' E 023°31'0 0.0
2018-Feb-21 12:31N 38°02' E 023°31'0 0.0
2018-Feb-21 12:00N 38°02' E 023°31'0 0.0
2018-Feb-21 11:30N 38°02' E 023°31'0 0.0
2018-Feb-21 11:00N 38°02' E 023°31'0 0.0
2018-Feb-21 10:31N 38°02' E 023°31'0 0.0
2018-Feb-21 10:01N 38°02' E 023°31'0 0.0
2018-Feb-21 09:31N 38°02' E 023°31'0 0.0
2018-Feb-21 09:00N 38°02' E 023°31'0 0.0
2018-Feb-21 08:30N 38°02' E 023°31'0 0.0
2018-Feb-21 08:01N 38°02' E 023°31'0 0.0
2018-Feb-21 07:30N 38°02' E 023°31'0 0.0
2018-Feb-21 07:00N 38°02' E 023°31'0 0.0
2018-Feb-21 06:30N 38°02' E 023°31'0 0.0
2018-Feb-21 06:00N 38°02' E 023°31'0 0.0
2018-Feb-21 05:30N 38°02' E 023°31'0 0.0
2018-Feb-21 05:00N 38°02' E 023°31'0 0.0
2018-Feb-21 04:31N 38°02' E 023°31'0 0.0
2018-Feb-21 04:01N 38°02' E 023°31'0 0.0
2018-Feb-21 03:30N 38°02' E 023°31'0 0.0
2018-Feb-21 03:00N 38°02' E 023°31'0 0.0
2018-Feb-21 02:30N 38°02' E 023°31'0 0.0
2018-Feb-21 02:01N 38°02' E 023°31'0 0.0
2018-Feb-21 01:31N 38°02' E 023°31'0 0.0
2018-Feb-21 01:00N 38°02' E 023°31'0 0.0
2018-Feb-21 00:31N 38°02' E 023°31'0 0.0
2018-Feb-21 00:00N 38°02' E 023°31'0 0.0
2018-Feb-20 23:30N 38°02' E 023°31'0 0.0
2018-Feb-20 23:00N 38°02' E 023°31'0 0.0
2018-Feb-20 22:31N 38°02' E 023°31'0 0.0
2018-Feb-20 22:00N 38°02' E 023°31'0 0.4
2018-Feb-20 21:31N 38°02' E 023°30'0 0.4
2018-Feb-20 21:00N 38°02' E 023°30'0 0.4
2018-Feb-20 20:30N 38°02' E 023°30'0 0.4
2018-Feb-20 20:01N 38°02' E 023°31'0 0.0
2018-Feb-20 19:30N 38°02' E 023°31'0 0.0
2018-Feb-20 19:01N 38°02' E 023°31'0 0.0
2018-Feb-20 18:30N 38°02' E 023°31'0 0.0
2018-Feb-20 18:01N 38°02' E 023°31'0 0.4
2018-Feb-20 17:30N 38°02' E 023°31'0 0.4
2018-Feb-20 17:01N 38°02' E 023°31'0 0.0
2018-Feb-20 16:31N 38°02' E 023°31'0 0.0
2018-Feb-20 16:01N 38°02' E 023°31'0 0.0
2018-Feb-20 15:31N 38°02' E 023°31'0 0.0
2018-Feb-20 15:00N 38°02' E 023°31'0 0.0
2018-Feb-20 14:30N 38°02' E 023°31'0 0.0
2018-Feb-20 14:01N 38°02' E 023°31'0 0.0
2018-Feb-20 13:30N 38°02' E 023°31'0 0.0
2018-Feb-20 13:00N 38°02' E 023°31'0 0.0
2018-Feb-20 12:30N 38°02' E 023°31'0 0.7
2018-Feb-20 12:01N 38°02' E 023°31'0 0.7
2018-Feb-20 11:30N 38°02' E 023°30'2 4.7
2018-Feb-20 11:00N 38°02' E 023°33'2 3.4
2018-Feb-20 10:31N 38°02' E 023°36'1 1.4
2018-Feb-20 10:00N 38°01' E 023°35'1 1.1
2018-Feb-20 09:31N 38°01' E 023°35'0 0.5
2018-Feb-20 09:00N 38°01' E 023°36'0 0.1
2018-Feb-20 08:30N 38°01' E 023°36'0 0.4
2018-Feb-20 08:00N 38°01' E 023°36'0 0.2
2018-Feb-20 07:31N 38°01' E 023°35'0 0.4
2018-Feb-20 07:00N 38°01' E 023°35'0 0.1
2018-Feb-20 06:30N 38°01' E 023°35'0 0.0
2018-Feb-20 06:01N 38°01' E 023°35'0 0.0
2018-Feb-20 05:31N 38°01' E 023°35'0 0.0
2018-Feb-20 05:00N 38°01' E 023°35'0 0.0
2018-Feb-20 04:30N 38°01' E 023°35'0 0.0
2018-Feb-20 04:00N 38°01' E 023°35'0 0.0
2018-Feb-20 03:30N 38°01' E 023°35'0 0.0
2018-Feb-20 03:01N 38°01' E 023°35'0 0.0
2018-Feb-20 02:30N 38°01' E 023°35'0 0.0
2018-Feb-20 02:01N 38°01' E 023°35'0 0.0
2018-Feb-20 01:30N 38°01' E 023°35'0 0.0
2018-Feb-20 01:01N 38°01' E 023°35'0 0.0
2018-Feb-20 00:30N 38°01' E 023°35'0 0.0
2018-Feb-20 00:01N 38°01' E 023°35'0 0.0
2018-Feb-19 23:31N 38°01' E 023°35'0 0.0
2018-Feb-19 23:00N 38°01' E 023°35'0 0.0
2018-Feb-19 22:30N 38°01' E 023°35'0 0.0
2018-Feb-19 22:01N 38°01' E 023°35'0 0.0
2018-Feb-19 21:30N 38°01' E 023°35'0 0.0
2018-Feb-19 21:00N 38°01' E 023°35'0 0.0
2018-Feb-19 20:30N 38°01' E 023°35'0 0.0
2018-Feb-19 20:00N 38°01' E 023°35'0 0.0
2018-Feb-19 19:30N 38°01' E 023°35'0 0.0
2018-Feb-19 19:00N 38°01' E 023°35'0 0.0
2018-Feb-19 18:30N 38°01' E 023°35'0 0.0
2018-Feb-19 18:00N 38°01' E 023°35'0 0.0
2018-Feb-19 17:31N 38°01' E 023°35'0 0.0
2018-Feb-19 17:00N 38°01' E 023°35'0 0.0
2018-Feb-19 16:30N 38°01' E 023°35'0 0.0
2018-Feb-19 16:01N 38°01' E 023°35'0 0.0
2018-Feb-19 15:30N 38°01' E 023°35'0 0.0
2018-Feb-19 15:00N 38°01' E 023°35'0 0.0
2018-Feb-19 14:30N 38°01' E 023°35'0 0.0
2018-Feb-19 14:00N 38°01' E 023°35'0 0.0
2018-Feb-19 13:30N 38°01' E 023°35'0 0.0
2018-Feb-19 13:00N 38°01' E 023°35'0 0.0
2018-Feb-19 12:30N 38°01' E 023°36'0 0.0
2018-Feb-19 12:00N 38°01' E 023°35'0 0.0
2018-Feb-19 11:31N 38°01' E 023°35'0 0.4
2018-Feb-19 11:01N 38°02' E 023°36'1 1.2
2018-Feb-19 10:30N 38°01' E 023°35'0 0.2
2018-Feb-19 10:01N 38°01' E 023°35'0 0.1
2018-Feb-19 09:29N 38°01' E 023°35'1 1.9
2018-Feb-19 09:00N 38°02' E 023°34'3 5.2
2018-Feb-19 08:30N 38°02' E 023°31'0 0.6
2018-Feb-19 08:00N 38°02' E 023°31'0 0.0
2018-Feb-19 07:30N 38°02' E 023°31'0 0.0
2018-Feb-19 07:00N 38°02' E 023°31'0 0.0
2018-Feb-19 06:30N 38°02' E 023°31'0 0.0
2018-Feb-19 06:00N 38°02' E 023°31'0 0.0
2018-Feb-19 05:31N 38°02' E 023°31'0 0.0
2018-Feb-19 05:00N 38°02' E 023°31'0 0.0
2018-Feb-19 04:31N 38°02' E 023°31'0 0.0
2018-Feb-19 04:00N 38°02' E 023°31'0 0.0
2018-Feb-19 03:31N 38°02' E 023°31'0 0.0
2018-Feb-19 03:00N 38°02' E 023°31'0 0.0
2018-Feb-19 02:30N 38°02' E 023°31'0 0.0
2018-Feb-19 02:01N 38°02' E 023°31'0 0.0
2018-Feb-19 01:30N 38°02' E 023°31'0 0.0
2018-Feb-19 01:00N 38°02' E 023°31'0 0.0
2018-Feb-19 00:30N 38°02' E 023°31'0 0.0
2018-Feb-19 00:00N 38°02' E 023°31'0 0.0
2018-Feb-18 23:30N 38°02' E 023°31'0 0.0
2018-Feb-18 23:00N 38°02' E 023°31'0 0.0
2018-Feb-18 22:31N 38°02' E 023°31'0 0.0
2018-Feb-18 22:01N 38°02' E 023°31'0 0.0
2018-Feb-18 21:30N 38°02' E 023°31'0 0.0
2018-Feb-18 21:01N 38°02' E 023°31'0 0.0
2018-Feb-18 20:30N 38°02' E 023°31'0 0.0
2018-Feb-18 20:00N 38°02' E 023°31'0 0.0
2018-Feb-18 19:31N 38°02' E 023°31'0 0.0
2018-Feb-18 19:00N 38°02' E 023°31'0 0.0
2018-Feb-18 18:30N 38°02' E 023°31'0 0.0
2018-Feb-18 18:00N 38°02' E 023°31'0 0.3
2018-Feb-18 17:31N 38°02' E 023°31'0 0.2
2018-Feb-18 17:00N 38°02' E 023°31'0 0.0
2018-Feb-18 16:31N 38°02' E 023°31'0 0.0
2018-Feb-18 16:01N 38°02' E 023°31'0 0.0
2018-Feb-18 15:30N 38°02' E 023°31'0 0.0
2018-Feb-18 15:00N 38°02' E 023°31'0 0.0
2018-Feb-18 14:30N 38°02' E 023°31'0 0.0
2018-Feb-18 14:01N 38°02' E 023°31'0 0.5
2018-Feb-18 13:30N 38°02' E 023°31'0 0.1
2018-Feb-18 13:00N 38°02' E 023°31'0 0.6
2018-Feb-18 12:31N 38°02' E 023°31'0 0.0
2018-Feb-18 12:00N 38°02' E 023°31'0 0.0
2018-Feb-18 11:30N 38°02' E 023°31'0 0.0
2018-Feb-18 11:00N 38°02' E 023°31'0 0.0
2018-Feb-18 10:31N 38°02' E 023°31'0 0.6
2018-Feb-18 10:00N 38°02' E 023°31'0 0.3
2018-Feb-18 09:31N 38°02' E 023°31'0 0.3
2018-Feb-18 09:01N 38°02' E 023°31'0 0.0
2018-Feb-18 08:31N 38°02' E 023°31'0 0.2
2018-Feb-18 08:01N 38°02' E 023°30'0 0.2
2018-Feb-18 07:30N 38°02' E 023°31'0 0.0
2018-Feb-18 07:01N 38°02' E 023°31'0 0.0
2018-Feb-18 06:31N 38°02' E 023°31'0 0.0
2018-Feb-18 06:00N 38°02' E 023°31'0 0.0
2018-Feb-18 05:30N 38°02' E 023°31'0 0.0
2018-Feb-18 05:00N 38°02' E 023°31'0 0.0
2018-Feb-18 04:31N 38°02' E 023°31'0 0.0
2018-Feb-18 04:00N 38°02' E 023°31'0 0.0
2018-Feb-18 03:31N 38°02' E 023°31'0 0.0
2018-Feb-18 03:00N 38°02' E 023°31'0 0.0
2018-Feb-18 02:30N 38°02' E 023°31'0 0.0
2018-Feb-18 02:00N 38°02' E 023°31'0 0.0
2018-Feb-18 01:30N 38°02' E 023°31'0 0.0
2018-Feb-18 01:01N 38°02' E 023°31'0 0.0
2018-Feb-18 00:31N 38°02' E 023°31'0 0.0
2018-Feb-18 00:01N 38°02' E 023°31'0 0.0
2018-Feb-17 23:30N 38°02' E 023°31'0 0.0
2018-Feb-17 23:00N 38°02' E 023°31'0 0.0
2018-Feb-17 22:30N 38°02' E 023°31'0 0.0
2018-Feb-17 22:01N 38°02' E 023°31'0 0.0
2018-Feb-17 21:31N 38°02' E 023°31'0 0.0
2018-Feb-17 21:00N 38°02' E 023°31'0 0.0
2018-Feb-17 20:30N 38°02' E 023°31'0 0.0
2018-Feb-17 20:00N 38°02' E 023°31'0 0.0
2018-Feb-17 19:31N 38°02' E 023°31'0 0.0
2018-Feb-17 19:01N 38°02' E 023°31'0 0.0
2018-Feb-17 18:31N 38°02' E 023°31'0 0.0
2018-Feb-17 18:00N 38°02' E 023°31'0 0.0
2018-Feb-17 17:30N 38°02' E 023°31'0 0.0
2018-Feb-17 17:00N 38°02' E 023°31'0 0.0
2018-Feb-17 16:30N 38°02' E 023°31'0 0.0
2018-Feb-17 16:00N 38°02' E 023°31'0 0.0
2018-Feb-17 15:30N 38°02' E 023°31'0 0.1
2018-Feb-17 15:00N 38°02' E 023°30'0 0.1
2018-Feb-17 14:31N 38°02' E 023°31'0 0.0
2018-Feb-17 14:00N 38°02' E 023°31'0 0.0
2018-Feb-17 13:30N 38°02' E 023°31'0 0.0
2018-Feb-17 13:00N 38°02' E 023°31'0 0.0
2018-Feb-17 12:30N 38°02' E 023°31'1 1.1
2018-Feb-17 12:00N 38°02' E 023°31'1 2.3
2018-Feb-17 11:30N 38°02' E 023°33'2 3.3
2018-Feb-17 11:01N 38°02' E 023°31'0 0.0
2018-Feb-17 10:31N 38°02' E 023°31'0 0.0
2018-Feb-17 10:00N 38°02' E 023°31'0 0.0
2018-Feb-17 09:31N 38°02' E 023°31'0 0.0
2018-Feb-17 09:00N 38°02' E 023°31'0 0.0
2018-Feb-17 08:31N 38°02' E 023°31'0 0.0
2018-Feb-17 08:01N 38°02' E 023°31'1 2.4
2018-Feb-17 07:30N 38°02' E 023°32'1 1.2
2018-Feb-17 07:01N 38°02' E 023°33'2 3.2
2018-Feb-17 06:31N 38°02' E 023°31'0 0.7
2018-Feb-17 06:01N 38°02' E 023°31'0 0.0
2018-Feb-17 05:30N 38°02' E 023°31'0 0.0
2018-Feb-17 05:01N 38°02' E 023°31'0 0.0
2018-Feb-17 04:31N 38°02' E 023°31'0 0.0
2018-Feb-17 04:00N 38°02' E 023°31'0 0.0
2018-Feb-17 03:31N 38°02' E 023°31'0 0.0
2018-Feb-17 03:00N 38°02' E 023°31'0 0.0
2018-Feb-17 02:31N 38°02' E 023°31'0 0.0
2018-Feb-17 02:00N 38°02' E 023°31'0 0.4
2018-Feb-17 01:30N 38°02' E 023°31'0 0.4
2018-Feb-17 00:59N 38°02' E 023°31'0 0.0
2018-Feb-17 00:30N 38°02' E 023°31'0 0.0
2018-Feb-17 00:00N 38°02' E 023°31'0 0.0
2018-Feb-16 23:31N 38°02' E 023°31'0 0.0
2018-Feb-16 23:00N 38°02' E 023°31'0 0.0
2018-Feb-16 22:30N 38°02' E 023°31'0 0.0
2018-Feb-16 22:00N 38°02' E 023°31'0 0.0
2018-Feb-16 21:31N 38°02' E 023°31'0 0.0
2018-Feb-16 21:01N 38°02' E 023°31'0 0.0
2018-Feb-16 20:31N 38°02' E 023°31'0 0.0
2018-Feb-16 20:00N 38°02' E 023°31'0 0.0
2018-Feb-16 19:30N 38°02' E 023°31'0 0.0
2018-Feb-16 19:01N 38°02' E 023°31'0 0.0
2018-Feb-16 18:30N 38°02' E 023°31'0 0.0
2018-Feb-16 18:01N 38°02' E 023°31'0 0.0
2018-Feb-16 17:30N 38°02' E 023°31'0 0.0
2018-Feb-16 17:01N 38°02' E 023°31'0 0.0
2018-Feb-16 16:30N 38°02' E 023°31'0 0.0
2018-Feb-16 16:01N 38°02' E 023°31'0 0.0
2018-Feb-16 15:30N 38°02' E 023°31'0 0.0
2018-Feb-16 15:00N 38°02' E 023°31'0 0.0
2018-Feb-16 14:30N 38°02' E 023°31'0 0.0
2018-Feb-16 14:00N 38°02' E 023°31'0 0.0
2018-Feb-16 13:30N 38°02' E 023°31'0 0.0
2018-Feb-16 13:00N 38°02' E 023°31'0 0.0
2018-Feb-16 12:30N 38°02' E 023°31'0 0.5
2018-Feb-16 12:01N 38°02' E 023°31'1 1.7
2018-Feb-16 11:31N 38°01' E 023°31'1 1.5
2018-Feb-16 11:00N 38°02' E 023°31'0 0.6
2018-Feb-16 10:30N 38°02' E 023°31'0 0.0
2018-Feb-16 10:00N 38°02' E 023°31'0 0.0
2018-Feb-16 09:31N 38°02' E 023°31'0 0.0
2018-Feb-16 09:00N 38°02' E 023°31'2 3.4
2018-Feb-16 08:30N 38°02' E 023°33'2 4.9
2018-Feb-16 08:00N 38°02' E 023°36'4 7.4
2018-Feb-16 07:30N 38°02' E 023°31'1 1.0
2018-Feb-16 07:00N 38°02' E 023°31'0 0.2
2018-Feb-16 06:31N 38°02' E 023°31'0 0.2
2018-Feb-16 06:00N 38°02' E 023°31'0 0.0
2018-Feb-16 05:31N 38°02' E 023°31'0 0.0
2018-Feb-16 05:00N 38°02' E 023°31'0 0.0
2018-Feb-16 04:30N 38°02' E 023°31'0 0.0
2018-Feb-16 04:01N 38°02' E 023°31'0 0.0
2018-Feb-16 03:30N 38°02' E 023°31'0 0.0
2018-Feb-16 03:01N 38°02' E 023°31'0 0.0
2018-Feb-16 02:30N 38°02' E 023°31'0 0.0
2018-Feb-16 02:01N 38°02' E 023°31'0 0.0
2018-Feb-16 01:30N 38°02' E 023°31'0 0.0
2018-Feb-16 01:01N 38°02' E 023°31'0 0.0
2018-Feb-16 00:31N 38°02' E 023°31'0 0.0
2018-Feb-16 00:00N 38°02' E 023°31'0 0.0
2018-Feb-15 23:31N 38°02' E 023°31'0 0.0
2018-Feb-15 23:01N 38°02' E 023°31'0 0.0
2018-Feb-15 22:30N 38°02' E 023°31'0 0.0
2018-Feb-15 22:00N 38°02' E 023°31'0 0.0
2018-Feb-15 21:30N 38°02' E 023°31'0 0.0
2018-Feb-15 21:00N 38°02' E 023°31'0 0.0
2018-Feb-15 20:31N 38°02' E 023°31'0 0.0
2018-Feb-15 20:00N 38°02' E 023°31'0 0.0
2018-Feb-15 19:30N 38°02' E 023°31'0 0.0
2018-Feb-15 19:01N 38°02' E 023°31'0 0.0
2018-Feb-15 18:31N 38°02' E 023°31'0 0.0
2018-Feb-15 18:00N 38°02' E 023°31'0 0.0
2018-Feb-15 17:31N 38°02' E 023°31'0 0.0
2018-Feb-15 17:00N 38°02' E 023°31'0 0.0
2018-Feb-15 16:31N 38°02' E 023°31'0 0.0
2018-Feb-15 16:00N 38°02' E 023°31'0 0.0
2018-Feb-15 15:31N 38°02' E 023°31'0 0.0
2018-Feb-15 14:59N 38°02' E 023°31'0 0.0
2018-Feb-15 14:30N 38°02' E 023°31'0 0.0
2018-Feb-15 14:00N 38°02' E 023°31'0 0.0
2018-Feb-15 13:30N 38°02' E 023°31'0 0.0
2018-Feb-15 13:00N 38°02' E 023°31'0 0.0
2018-Feb-15 12:30N 38°02' E 023°31'0 0.0
2018-Feb-15 12:01N 38°02' E 023°31'0 0.0
2018-Feb-15 11:31N 38°02' E 023°31'0 0.0
2018-Feb-15 11:00N 38°02' E 023°31'0 0.0
2018-Feb-15 10:31N 38°02' E 023°31'0 0.0
2018-Feb-15 10:01N 38°02' E 023°31'0 0.0
2018-Feb-15 09:30N 38°02' E 023°31'0 0.0
2018-Feb-15 09:01N 38°02' E 023°31'0 0.0
2018-Feb-15 08:31N 38°02' E 023°31'0 0.0
2018-Feb-15 08:01N 38°02' E 023°31'0 0.0
2018-Feb-15 07:30N 38°02' E 023°31'0 0.0
2018-Feb-15 07:00N 38°02' E 023°31'0 0.0
2018-Feb-15 06:30N 38°02' E 023°31'0 0.0
2018-Feb-15 06:00N 38°02' E 023°31'0 0.0
2018-Feb-15 05:30N 38°02' E 023°31'0 0.0
2018-Feb-15 05:00N 38°02' E 023°31'0 0.0
2018-Feb-15 04:31N 38°02' E 023°31'0 0.0
2018-Feb-15 04:00N 38°02' E 023°31'0 0.0
2018-Feb-15 03:30N 38°02' E 023°31'0 0.0
2018-Feb-15 03:01N 38°02' E 023°31'0 0.0
2018-Feb-15 02:30N 38°02' E 023°31'0 0.4
2018-Feb-15 02:00N 38°02' E 023°31'0 0.5
2018-Feb-15 01:31N 38°02' E 023°31'0 0.0
2018-Feb-15 01:01N 38°02' E 023°31'0 0.0
2018-Feb-15 00:30N 38°02' E 023°31'0 0.0
2018-Feb-15 00:00N 38°02' E 023°31'0 0.0
2018-Feb-14 23:30N 38°02' E 023°31'0 0.0
2018-Feb-14 23:00N 38°02' E 023°31'0 0.0
2018-Feb-14 22:30N 38°02' E 023°31'0 0.0
2018-Feb-14 22:00N 38°02' E 023°31'0 0.0
2018-Feb-14 21:30N 38°02' E 023°31'0 0.0
2018-Feb-14 21:00N 38°02' E 023°31'0 0.0
2018-Feb-14 20:30N 38°02' E 023°31'0 0.0
2018-Feb-14 20:01N 38°02' E 023°31'0 0.0
2018-Feb-14 19:31N 38°02' E 023°31'0 0.0
2018-Feb-14 19:00N 38°02' E 023°31'0 0.0
2018-Feb-14 18:30N 38°02' E 023°31'0 0.0
2018-Feb-14 18:00N 38°02' E 023°31'0 0.0
2018-Feb-14 17:31N 38°02' E 023°31'0 0.0
2018-Feb-14 17:01N 38°02' E 023°31'0 0.0
2018-Feb-14 16:30N 38°02' E 023°31'0 0.0
2018-Feb-14 16:01N 38°02' E 023°31'0 0.0
2018-Feb-14 15:31N 38°02' E 023°31'0 0.0
2018-Feb-14 15:01N 38°02' E 023°31'0 0.0
2018-Feb-14 14:30N 38°02' E 023°31'0 0.0
2018-Feb-14 14:01N 38°02' E 023°31'  

Dump ship's entire track history